sensor_id;sensor_type;location;lat;lon;timestamp;temperature;humidity
1377;DHT22;682;52.502;13.488;2023-03-14T00:00:33;13.10;1.00
1377;DHT22;682;52.502;13.488;2023-03-14T00:03:00;13.00;1.00
1377;DHT22;682;52.502;13.488;2023-03-14T00:05:29;13.00;1.00
1377;DHT22;682;52.502;13.488;2023-03-14T00:07:56;12.90;1.00
1377;DHT22;682;52.502;13.488;2023-03-14T00:10:23;12.90;1.00
1377;DHT22;682;52.502;13.488;2023-03-14T00:12:50;12.90;1.00
1377;DHT22;682;52.502;13.488;2023-03-14T00:15:17;12.90;1.00
1377;DHT22;682;52.502;13.488;2023-03-14T00:17:44;12.80;1.00
1377;DHT22;682;52.502;13.488;2023-03-14T00:20:11;12.80;1.00
1377;DHT22;682;52.502;13.488;2023-03-14T00:22:40;12.80;1.00
1377;DHT22;682;52.502;13.488;2023-03-14T00:25:11;12.70;1.00
1377;DHT22;682;52.502;13.488;2023-03-14T00:27:39;12.70;1.00
1377;DHT22;682;52.502;13.488;2023-03-14T00:30:08;12.70;1.00
1377;DHT22;682;52.502;13.488;2023-03-14T00:32:35;12.60;1.00
1377;DHT22;682;52.502;13.488;2023-03-14T00:35:03;12.60;1.00
1377;DHT22;682;52.502;13.488;2023-03-14T00:37:30;12.60;1.00
1377;DHT22;682;52.502;13.488;2023-03-14T00:39:59;12.50;1.00
1377;DHT22;682;52.502;13.488;2023-03-14T00:42:29;12.50;1.00
1377;DHT22;682;52.502;13.488;2023-03-14T00:44:57;12.50;1.00
1377;DHT22;682;52.502;13.488;2023-03-14T00:47:24;12.50;1.00
1377;DHT22;682;52.502;13.488;2023-03-14T00:49:51;12.50;1.00
1377;DHT22;682;52.502;13.488;2023-03-14T00:52:18;12.40;1.00
1377;DHT22;682;52.502;13.488;2023-03-14T00:54:45;12.40;1.00
1377;DHT22;682;52.502;13.488;2023-03-14T00:57:13;12.40;1.00
1377;DHT22;682;52.502;13.488;2023-03-14T00:59:40;12.30;1.00
1377;DHT22;682;52.502;13.488;2023-03-14T01:02:10;12.40;1.00
1377;DHT22;682;52.502;13.488;2023-03-14T01:04:37;12.30;1.00
1377;DHT22;682;52.502;13.488;2023-03-14T01:07:05;12.30;1.00
1377;DHT22;682;52.502;13.488;2023-03-14T01:09:31;12.30;1.00
1377;DHT22;682;52.502;13.488;2023-03-14T01:11:59;12.30;1.00
1377;DHT22;682;52.502;13.488;2023-03-14T01:14:27;12.30;1.00
1377;DHT22;682;52.502;13.488;2023-03-14T01:16:54;12.20;1.00
1377;DHT22;682;52.502;13.488;2023-03-14T01:19:26;12.20;1.00
1377;DHT22;682;52.502;13.488;2023-03-14T01:21:53;12.10;1.00
1377;DHT22;682;52.502;13.488;2023-03-14T01:24:20;12.10;1.00
1377;DHT22;682;52.502;13.488;2023-03-14T01:26:48;12.10;1.00
1377;DHT22;682;52.502;13.488;2023-03-14T01:29:14;12.10;1.00
1377;DHT22;682;52.502;13.488;2023-03-14T01:31:43;12.10;1.00
1377;DHT22;682;52.502;13.488;2023-03-14T01:34:10;12.10;1.00
1377;DHT22;682;52.502;13.488;2023-03-14T01:36:40;12.10;1.00
1377;DHT22;682;52.502;13.488;2023-03-14T01:39:07;12.10;1.00
1377;DHT22;682;52.502;13.488;2023-03-14T01:41:35;12.20;1.00
1377;DHT22;682;52.502;13.488;2023-03-14T01:44:02;12.20;1.00
1377;DHT22;682;52.502;13.488;2023-03-14T01:46:38;12.30;1.00
1377;DHT22;682;52.502;13.488;2023-03-14T01:49:18;12.30;1.00
1377;DHT22;682;52.502;13.488;2023-03-14T01:51:51;12.30;1.00
1377;DHT22;682;52.502;13.488;2023-03-14T01:54:22;12.30;1.00
1377;DHT22;682;52.502;13.488;2023-03-14T01:56:56;12.30;1.00
1377;DHT22;682;52.502;13.488;2023-03-14T01:59:26;12.30;1.00
1377;DHT22;682;52.502;13.488;2023-03-14T02:01:55;12.30;1.00
1377;DHT22;682;52.502;13.488;2023-03-14T02:04:26;12.30;1.00
1377;DHT22;682;52.502;13.488;2023-03-14T02:06:58;12.30;1.00
1377;DHT22;682;52.502;13.488;2023-03-14T02:09:26;12.30;1.00
1377;DHT22;682;52.502;13.488;2023-03-14T02:11:53;12.20;1.00
1377;DHT22;682;52.502;13.488;2023-03-14T02:14:30;12.20;1.00
1377;DHT22;682;52.502;13.488;2023-03-14T02:16:59;12.10;1.00
1377;DHT22;682;52.502;13.488;2023-03-14T02:19:37;12.10;1.00
1377;DHT22;682;52.502;13.488;2023-03-14T02:22:09;12.00;1.00
1377;DHT22;682;52.502;13.488;2023-03-14T02:24:43;12.00;1.00
1377;DHT22;682;52.502;13.488;2023-03-14T02:27:15;12.00;1.00
1377;DHT22;682;52.502;13.488;2023-03-14T02:29:49;11.90;1.00
1377;DHT22;682;52.502;13.488;2023-03-14T02:32:17;11.90;1.00
1377;DHT22;682;52.502;13.488;2023-03-14T02:34:55;11.90;1.00
1377;DHT22;682;52.502;13.488;2023-03-14T02:37:27;11.90;1.00
1377;DHT22;682;52.502;13.488;2023-03-14T02:39:57;12.00;1.00
1377;DHT22;682;52.502;13.488;2023-03-14T02:42:25;12.00;1.00
1377;DHT22;682;52.502;13.488;2023-03-14T02:44:54;12.10;1.00
1377;DHT22;682;52.502;13.488;2023-03-14T02:47:27;12.00;1.00
1377;DHT22;682;52.502;13.488;2023-03-14T02:50:01;12.10;1.00
1377;DHT22;682;52.502;13.488;2023-03-14T02:52:29;12.00;1.00
1377;DHT22;682;52.502;13.488;2023-03-14T02:54:56;12.00;1.00
1377;DHT22;682;52.502;13.488;2023-03-14T02:57:24;12.00;1.00
1377;DHT22;682;52.502;13.488;2023-03-14T02:59:52;12.00;1.00
1377;DHT22;682;52.502;13.488;2023-03-14T03:02:19;12.00;1.00
1377;DHT22;682;52.502;13.488;2023-03-14T03:04:49;11.90;1.00
1377;DHT22;682;52.502;13.488;2023-03-14T03:07:16;11.90;1.00
1377;DHT22;682;52.502;13.488;2023-03-14T03:09:43;11.90;1.00
1377;DHT22;682;52.502;13.488;2023-03-14T03:12:12;11.80;1.00
1377;DHT22;682;52.502;13.488;2023-03-14T03:14:41;11.80;1.00
1377;DHT22;682;52.502;13.488;2023-03-14T03:17:09;11.80;1.00
1377;DHT22;682;52.502;13.488;2023-03-14T03:19:35;11.80;1.00
1377;DHT22;682;52.502;13.488;2023-03-14T03:22:02;11.80;1.00
1377;DHT22;682;52.502;13.488;2023-03-14T03:24:29;11.70;1.00
1377;DHT22;682;52.502;13.488;2023-03-14T03:26:56;11.80;1.00
1377;DHT22;682;52.502;13.488;2023-03-14T03:29:23;11.70;1.00
1377;DHT22;682;52.502;13.488;2023-03-14T03:31:54;11.70;1.00
1377;DHT22;682;52.502;13.488;2023-03-14T03:34:21;11.70;1.00
1377;DHT22;682;52.502;13.488;2023-03-14T03:36:48;11.70;1.00
1377;DHT22;682;52.502;13.488;2023-03-14T03:39:15;11.70;1.00
1377;DHT22;682;52.502;13.488;2023-03-14T03:41:41;11.70;1.00
1377;DHT22;682;52.502;13.488;2023-03-14T03:44:08;11.70;1.00
1377;DHT22;682;52.502;13.488;2023-03-14T03:46:35;11.70;1.00
1377;DHT22;682;52.502;13.488;2023-03-14T03:49:03;11.60;1.00
1377;DHT22;682;52.502;13.488;2023-03-14T03:51:30;11.60;1.00
1377;DHT22;682;52.502;13.488;2023-03-14T03:53:58;11.60;1.00
1377;DHT22;682;52.502;13.488;2023-03-14T03:56:26;11.60;1.00
1377;DHT22;682;52.502;13.488;2023-03-14T03:58:53;11.60;1.00
1377;DHT22;682;52.502;13.488;2023-03-14T04:01:20;11.60;1.00
1377;DHT22;682;52.502;13.488;2023-03-14T04:03:48;11.60;1.00
1377;DHT22;682;52.502;13.488;2023-03-14T04:06:16;11.60;1.00
1377;DHT22;682;52.502;13.488;2023-03-14T04:08:43;11.50;1.00
1377;DHT22;682;52.502;13.488;2023-03-14T04:11:10;11.50;1.00
1377;DHT22;682;52.502;13.488;2023-03-14T04:13:37;11.60;1.00
1377;DHT22;682;52.502;13.488;2023-03-14T04:16:13;11.60;1.00
1377;DHT22;682;52.502;13.488;2023-03-14T04:18:41;11.50;1.00
1377;DHT22;682;52.502;13.488;2023-03-14T04:21:08;11.50;1.00
1377;DHT22;682;52.502;13.488;2023-03-14T04:23:36;11.50;1.00
1377;DHT22;682;52.502;13.488;2023-03-14T04:26:03;11.50;1.00
1377;DHT22;682;52.502;13.488;2023-03-14T04:28:30;11.50;1.00
1377;DHT22;682;52.502;13.488;2023-03-14T04:30:57;11.50;1.00
1377;DHT22;682;52.502;13.488;2023-03-14T04:33:24;11.50;1.00
1377;DHT22;682;52.502;13.488;2023-03-14T04:35:54;11.60;1.00
1377;DHT22;682;52.502;13.488;2023-03-14T04:38:21;11.60;1.00
1377;DHT22;682;52.502;13.488;2023-03-14T04:40:49;11.60;1.00
1377;DHT22;682;52.502;13.488;2023-03-14T04:43:16;11.50;1.00
1377;DHT22;682;52.502;13.488;2023-03-14T04:45:43;11.50;1.00
1377;DHT22;682;52.502;13.488;2023-03-14T04:48:11;11.50;1.00
1377;DHT22;682;52.502;13.488;2023-03-14T04:50:40;11.50;1.00
1377;DHT22;682;52.502;13.488;2023-03-14T04:53:07;11.50;1.00
1377;DHT22;682;52.502;13.488;2023-03-14T04:55:37;11.50;1.00
1377;DHT22;682;52.502;13.488;2023-03-14T04:58:06;11.50;1.00
1377;DHT22;682;52.502;13.488;2023-03-14T05:00:33;11.50;1.00
1377;DHT22;682;52.502;13.488;2023-03-14T05:03:00;11.50;1.00
1377;DHT22;682;52.502;13.488;2023-03-14T05:05:27;11.50;1.00
1377;DHT22;682;52.502;13.488;2023-03-14T05:07:57;11.50;1.00
1377;DHT22;682;52.502;13.488;2023-03-14T05:10:24;11.50;1.00
1377;DHT22;682;52.502;13.488;2023-03-14T05:12:51;11.50;1.00
1377;DHT22;682;52.502;13.488;2023-03-14T05:15:19;11.60;1.00
1377;DHT22;682;52.502;13.488;2023-03-14T05:17:46;11.60;1.00
1377;DHT22;682;52.502;13.488;2023-03-14T05:20:14;11.60;1.00
1377;DHT22;682;52.502;13.488;2023-03-14T05:22:42;11.60;1.00
1377;DHT22;682;52.502;13.488;2023-03-14T05:25:09;11.60;1.00
1377;DHT22;682;52.502;13.488;2023-03-14T05:27:36;11.50;1.00
1377;DHT22;682;52.502;13.488;2023-03-14T05:30:05;11.50;1.00
1377;DHT22;682;52.502;13.488;2023-03-14T05:32:34;11.50;1.00
1377;DHT22;682;52.502;13.488;2023-03-14T05:35:01;11.50;1.00
1377;DHT22;682;52.502;13.488;2023-03-14T05:37:28;11.60;1.00
1377;DHT22;682;52.502;13.488;2023-03-14T05:39:55;11.60;1.00
1377;DHT22;682;52.502;13.488;2023-03-14T05:42:22;11.60;1.00
1377;DHT22;682;52.502;13.488;2023-03-14T05:44:49;11.60;1.00
1377;DHT22;682;52.502;13.488;2023-03-14T05:47:16;11.60;1.00
1377;DHT22;682;52.502;13.488;2023-03-14T05:49:46;11.60;1.00
1377;DHT22;682;52.502;13.488;2023-03-14T05:52:14;11.70;1.00
1377;DHT22;682;52.502;13.488;2023-03-14T05:54:41;11.70;1.00
1377;DHT22;682;52.502;13.488;2023-03-14T05:57:08;11.70;1.00
1377;DHT22;682;52.502;13.488;2023-03-14T05:59:35;11.70;1.00
1377;DHT22;682;52.502;13.488;2023-03-14T06:02:05;11.70;1.00
1377;DHT22;682;52.502;13.488;2023-03-14T06:04:32;11.70;1.00
1377;DHT22;682;52.502;13.488;2023-03-14T06:07:00;11.70;1.00
1377;DHT22;682;52.502;13.488;2023-03-14T06:09:27;11.70;1.00
1377;DHT22;682;52.502;13.488;2023-03-14T06:11:54;11.70;1.00
1377;DHT22;682;52.502;13.488;2023-03-14T06:14:21;11.80;1.00
1377;DHT22;682;52.502;13.488;2023-03-14T06:16:48;11.80;1.00
1377;DHT22;682;52.502;13.488;2023-03-14T06:19:16;11.80;1.00
1377;DHT22;682;52.502;13.488;2023-03-14T06:21:44;11.90;1.00
1377;DHT22;682;52.502;13.488;2023-03-14T06:24:12;11.90;1.00
1377;DHT22;682;52.502;13.488;2023-03-14T06:26:39;11.90;1.00
1377;DHT22;682;52.502;13.488;2023-03-14T06:29:06;11.90;1.00
1377;DHT22;682;52.502;13.488;2023-03-14T06:31:33;11.90;1.00
1377;DHT22;682;52.502;13.488;2023-03-14T06:34:00;12.00;1.00
1377;DHT22;682;52.502;13.488;2023-03-14T06:36:28;11.90;1.00
1377;DHT22;682;52.502;13.488;2023-03-14T06:38:55;12.10;1.00
1377;DHT22;682;52.502;13.488;2023-03-14T06:41:23;12.10;1.00
1377;DHT22;682;52.502;13.488;2023-03-14T06:43:51;12.10;1.00
1377;DHT22;682;52.502;13.488;2023-03-14T06:46:18;12.10;1.00
1377;DHT22;682;52.502;13.488;2023-03-14T06:48:46;12.20;1.00
1377;DHT22;682;52.502;13.488;2023-03-14T06:51:13;12.20;1.00
1377;DHT22;682;52.502;13.488;2023-03-14T06:53:40;12.20;1.00
1377;DHT22;682;52.502;13.488;2023-03-14T06:56:08;12.20;1.00
1377;DHT22;682;52.502;13.488;2023-03-14T06:58:36;12.30;1.00
1377;DHT22;682;52.502;13.488;2023-03-14T07:01:04;12.30;1.00
1377;DHT22;682;52.502;13.488;2023-03-14T07:03:31;12.30;1.00
1377;DHT22;682;52.502;13.488;2023-03-14T07:05:58;12.40;1.00
1377;DHT22;682;52.502;13.488;2023-03-14T07:08:25;12.50;1.00
1377;DHT22;682;52.502;13.488;2023-03-14T07:10:52;12.60;1.00
1377;DHT22;682;52.502;13.488;2023-03-14T07:13:19;12.70;1.00
1377;DHT22;682;52.502;13.488;2023-03-14T07:15:47;12.70;1.00
1377;DHT22;682;52.502;13.488;2023-03-14T07:18:29;12.70;1.00
1377;DHT22;682;52.502;13.488;2023-03-14T07:20:56;12.80;1.00
1377;DHT22;682;52.502;13.488;2023-03-14T07:23:23;12.70;1.00
1377;DHT22;682;52.502;13.488;2023-03-14T07:25:50;12.80;1.00
1377;DHT22;682;52.502;13.488;2023-03-14T07:28:19;12.70;1.00
1377;DHT22;682;52.502;13.488;2023-03-14T07:30:48;12.80;1.00
1377;DHT22;682;52.502;13.488;2023-03-14T07:33:15;12.90;1.00
1377;DHT22;682;52.502;13.488;2023-03-14T07:35:43;13.00;1.00
1377;DHT22;682;52.502;13.488;2023-03-14T07:38:10;13.10;1.00
1377;DHT22;682;52.502;13.488;2023-03-14T07:40:37;13.20;1.00
1377;DHT22;682;52.502;13.488;2023-03-14T07:43:04;13.10;1.00
1377;DHT22;682;52.502;13.488;2023-03-14T07:45:31;13.10;1.00
1377;DHT22;682;52.502;13.488;2023-03-14T07:47:59;13.00;1.00
1377;DHT22;682;52.502;13.488;2023-03-14T07:50:28;13.00;1.00
1377;DHT22;682;52.502;13.488;2023-03-14T07:52:56;12.90;1.00
1377;DHT22;682;52.502;13.488;2023-03-14T07:55:24;12.80;1.00
1377;DHT22;682;52.502;13.488;2023-03-14T07:57:51;12.80;1.00
1377;DHT22;682;52.502;13.488;2023-03-14T08:00:19;12.70;1.00
1377;DHT22;682;52.502;13.488;2023-03-14T08:02:46;12.70;1.00
1377;DHT22;682;52.502;13.488;2023-03-14T08:05:15;12.80;1.00
1377;DHT22;682;52.502;13.488;2023-03-14T08:07:42;12.80;1.00
1377;DHT22;682;52.502;13.488;2023-03-14T08:10:10;12.90;1.00
1377;DHT22;682;52.502;13.488;2023-03-14T08:12:41;13.00;1.00
1377;DHT22;682;52.502;13.488;2023-03-14T08:15:09;13.30;1.00
1377;DHT22;682;52.502;13.488;2023-03-14T08:17:37;13.50;1.00
1377;DHT22;682;52.502;13.488;2023-03-14T08:20:04;13.60;1.00
1377;DHT22;682;52.502;13.488;2023-03-14T08:22:35;13.60;1.00
1377;DHT22;682;52.502;13.488;2023-03-14T08:25:03;13.60;1.00
1377;DHT22;682;52.502;13.488;2023-03-14T08:27:31;13.60;1.00
1377;DHT22;682;52.502;13.488;2023-03-14T08:29:58;13.70;1.00
1377;DHT22;682;52.502;13.488;2023-03-14T08:32:27;13.70;1.00
1377;DHT22;682;52.502;13.488;2023-03-14T08:34:54;13.60;1.00
1377;DHT22;682;52.502;13.488;2023-03-14T08:37:21;13.70;1.00
1377;DHT22;682;52.502;13.488;2023-03-14T08:39:51;13.70;1.00
1377;DHT22;682;52.502;13.488;2023-03-14T08:42:18;13.70;1.00
1377;DHT22;682;52.502;13.488;2023-03-14T08:44:48;13.70;1.00
1377;DHT22;682;52.502;13.488;2023-03-14T08:47:15;13.60;1.00
1377;DHT22;682;52.502;13.488;2023-03-14T08:49:42;13.60;1.00
1377;DHT22;682;52.502;13.488;2023-03-14T08:52:09;13.60;1.00
1377;DHT22;682;52.502;13.488;2023-03-14T08:54:38;13.60;1.00
1377;DHT22;682;52.502;13.488;2023-03-14T08:57:07;13.50;1.00
1377;DHT22;682;52.502;13.488;2023-03-14T08:59:33;13.60;1.00
1377;DHT22;682;52.502;13.488;2023-03-14T09:02:01;13.70;1.00
1377;DHT22;682;52.502;13.488;2023-03-14T09:04:29;13.70;1.00
1377;DHT22;682;52.502;13.488;2023-03-14T09:06:56;13.70;1.00
1377;DHT22;682;52.502;13.488;2023-03-14T09:09:24;13.70;1.00
1377;DHT22;682;52.502;13.488;2023-03-14T09:11:52;13.80;1.00
1377;DHT22;682;52.502;13.488;2023-03-14T09:14:20;13.80;1.00
1377;DHT22;682;52.502;13.488;2023-03-14T09:16:47;13.90;1.00
1377;DHT22;682;52.502;13.488;2023-03-14T09:19:14;14.00;1.00
1377;DHT22;682;52.502;13.488;2023-03-14T09:21:41;14.20;1.00
1377;DHT22;682;52.502;13.488;2023-03-14T09:24:08;15.10;1.00
1377;DHT22;682;52.502;13.488;2023-03-14T09:26:35;16.60;1.00
1377;DHT22;682;52.502;13.488;2023-03-14T09:29:02;18.20;1.00
1377;DHT22;682;52.502;13.488;2023-03-14T09:31:30;19.30;1.00
1377;DHT22;682;52.502;13.488;2023-03-14T09:33:57;20.50;1.00
1377;DHT22;682;52.502;13.488;2023-03-14T09:36:24;21.20;1.00
1377;DHT22;682;52.502;13.488;2023-03-14T09:38:51;22.20;1.00
1377;DHT22;682;52.502;13.488;2023-03-14T09:41:23;22.50;1.00
1377;DHT22;682;52.502;13.488;2023-03-14T09:43:56;22.50;1.00
1377;DHT22;682;52.502;13.488;2023-03-14T09:46:24;22.80;1.00
1377;DHT22;682;52.502;13.488;2023-03-14T09:48:53;23.00;1.00
1377;DHT22;682;52.502;13.488;2023-03-14T09:51:20;22.40;1.00
1377;DHT22;682;52.502;13.488;2023-03-14T09:53:50;21.30;1.00
1377;DHT22;682;52.502;13.488;2023-03-14T09:56:19;19.60;1.00
1377;DHT22;682;52.502;13.488;2023-03-14T09:58:51;18.20;1.00
1377;DHT22;682;52.502;13.488;2023-03-14T10:01:24;17.10;1.00
1377;DHT22;682;52.502;13.488;2023-03-14T10:03:55;16.50;1.00
1377;DHT22;682;52.502;13.488;2023-03-14T10:06:25;16.00;1.00
1377;DHT22;682;52.502;13.488;2023-03-14T10:08:54;15.80;1.00
1377;DHT22;682;52.502;13.488;2023-03-14T10:11:23;15.60;1.00
1377;DHT22;682;52.502;13.488;2023-03-14T10:14:03;15.40;1.00
1377;DHT22;682;52.502;13.488;2023-03-14T10:16:32;15.20;1.00
1377;DHT22;682;52.502;13.488;2023-03-14T10:19:06;15.10;1.00
1377;DHT22;682;52.502;13.488;2023-03-14T10:21:39;15.10;1.00
1377;DHT22;682;52.502;13.488;2023-03-14T10:24:20;15.20;1.00
1377;DHT22;682;52.502;13.488;2023-03-14T10:26:49;15.10;1.00
1377;DHT22;682;52.502;13.488;2023-03-14T10:29:17;15.10;1.00
1377;DHT22;682;52.502;13.488;2023-03-14T10:31:50;15.20;1.00
1377;DHT22;682;52.502;13.488;2023-03-14T10:34:26;15.20;1.00
1377;DHT22;682;52.502;13.488;2023-03-14T10:36:56;15.10;1.00
1377;DHT22;682;52.502;13.488;2023-03-14T10:39:37;14.90;1.00
1377;DHT22;682;52.502;13.488;2023-03-14T10:42:14;14.80;1.00
1377;DHT22;682;52.502;13.488;2023-03-14T10:44:43;14.70;1.00
1377;DHT22;682;52.502;13.488;2023-03-14T10:47:17;14.60;1.00
1377;DHT22;682;52.502;13.488;2023-03-14T10:49:46;14.50;1.00
1377;DHT22;682;52.502;13.488;2023-03-14T10:52:19;14.40;1.00
1377;DHT22;682;52.502;13.488;2023-03-14T10:54:49;14.50;1.00
1377;DHT22;682;52.502;13.488;2023-03-14T10:57:20;14.50;1.00
1377;DHT22;682;52.502;13.488;2023-03-14T10:59:48;14.50;1.00
1377;DHT22;682;52.502;13.488;2023-03-14T11:02:32;14.40;1.00
1377;DHT22;682;52.502;13.488;2023-03-14T11:05:13;14.40;1.00
1377;DHT22;682;52.502;13.488;2023-03-14T11:07:42;14.30;1.00
1377;DHT22;682;52.502;13.488;2023-03-14T11:10:18;14.40;1.00
1377;DHT22;682;52.502;13.488;2023-03-14T11:12:56;14.40;1.00
1377;DHT22;682;52.502;13.488;2023-03-14T11:15:31;14.50;1.00
1377;DHT22;682;52.502;13.488;2023-03-14T11:21:12;14.90;1.00
1377;DHT22;682;52.502;13.488;2023-03-14T11:23:46;14.90;1.00
1377;DHT22;682;52.502;13.488;2023-03-14T11:26:24;14.90;1.00
1377;DHT22;682;52.502;13.488;2023-03-14T11:28:57;14.90;1.00
1377;DHT22;682;52.502;13.488;2023-03-14T11:31:26;14.70;1.00
1377;DHT22;682;52.502;13.488;2023-03-14T11:33:57;14.70;1.00
1377;DHT22;682;52.502;13.488;2023-03-14T11:36:33;14.80;1.00
1377;DHT22;682;52.502;13.488;2023-03-14T11:39:09;14.80;1.00
1377;DHT22;682;52.502;13.488;2023-03-14T11:41:40;14.70;1.00
1377;DHT22;682;52.502;13.488;2023-03-14T11:44:14;14.70;1.00
1377;DHT22;682;52.502;13.488;2023-03-14T11:46:47;14.70;1.00
1377;DHT22;682;52.502;13.488;2023-03-14T11:49:19;14.80;1.00
1377;DHT22;682;52.502;13.488;2023-03-14T11:51:54;14.70;1.00
1377;DHT22;682;52.502;13.488;2023-03-14T11:54:33;14.60;1.00
1377;DHT22;682;52.502;13.488;2023-03-14T11:57:02;14.60;1.00
1377;DHT22;682;52.502;13.488;2023-03-14T11:59:44;14.40;1.00
1377;DHT22;682;52.502;13.488;2023-03-14T12:02:21;14.30;1.00
1377;DHT22;682;52.502;13.488;2023-03-14T12:05:14;14.20;1.00
1377;DHT22;682;52.502;13.488;2023-03-14T12:07:58;14.20;1.00
1377;DHT22;682;52.502;13.488;2023-03-14T12:10:36;14.30;1.00
1377;DHT22;682;52.502;13.488;2023-03-14T12:13:04;14.50;1.00
1377;DHT22;682;52.502;13.488;2023-03-14T12:15:31;14.70;1.00
1377;DHT22;682;52.502;13.488;2023-03-14T12:18:03;14.70;1.00
1377;DHT22;682;52.502;13.488;2023-03-14T12:20:30;14.80;1.00
1377;DHT22;682;52.502;13.488;2023-03-14T12:23:02;14.90;1.00
1377;DHT22;682;52.502;13.488;2023-03-14T12:25:32;15.00;1.00
1377;DHT22;682;52.502;13.488;2023-03-14T12:28:17;14.80;1.00
1377;DHT22;682;52.502;13.488;2023-03-14T12:30:45;14.80;1.00
1377;DHT22;682;52.502;13.488;2023-03-14T12:33:28;14.60;1.00
1377;DHT22;682;52.502;13.488;2023-03-14T12:39:33;14.70;1.00
1377;DHT22;682;52.502;13.488;2023-03-14T12:42:03;14.90;1.00
1377;DHT22;682;52.502;13.488;2023-03-14T12:44:45;14.70;1.00
1377;DHT22;682;52.502;13.488;2023-03-14T12:47:50;14.70;1.00
1377;DHT22;682;52.502;13.488;2023-03-14T12:50:24;14.80;1.00
1377;DHT22;682;52.502;13.488;2023-03-14T12:53:06;14.70;1.00
1377;DHT22;682;52.502;13.488;2023-03-14T12:55:40;14.60;1.00
1377;DHT22;682;52.502;13.488;2023-03-14T12:58:16;14.70;1.00
1377;DHT22;682;52.502;13.488;2023-03-14T13:00:46;14.90;1.00
1377;DHT22;682;52.502;13.488;2023-03-14T13:03:19;14.90;1.00
1377;DHT22;682;52.502;13.488;2023-03-14T13:05:56;14.90;1.00
1377;DHT22;682;52.502;13.488;2023-03-14T13:08:36;14.80;1.00
1377;DHT22;682;52.502;13.488;2023-03-14T13:11:09;14.70;1.00
1377;DHT22;682;52.502;13.488;2023-03-14T13:13:41;14.50;1.00
1377;DHT22;682;52.502;13.488;2023-03-14T13:16:12;14.30;1.00
1377;DHT22;682;52.502;13.488;2023-03-14T13:18:42;13.80;1.00
1377;DHT22;682;52.502;13.488;2023-03-14T13:21:13;13.30;1.00
1377;DHT22;682;52.502;13.488;2023-03-14T13:23:54;12.80;1.00
1377;DHT22;682;52.502;13.488;2023-03-14T13:26:32;12.50;1.00
1377;DHT22;682;52.502;13.488;2023-03-14T13:29:09;12.40;1.00
1377;DHT22;682;52.502;13.488;2023-03-14T13:31:36;12.10;1.00
1377;DHT22;682;52.502;13.488;2023-03-14T13:34:09;12.00;1.00
1377;DHT22;682;52.502;13.488;2023-03-14T13:36:36;12.00;1.00
1377;DHT22;682;52.502;13.488;2023-03-14T13:39:09;12.10;1.00
1377;DHT22;682;52.502;13.488;2023-03-14T13:41:40;12.50;1.00
1377;DHT22;682;52.502;13.488;2023-03-14T13:44:13;12.70;1.00
1377;DHT22;682;52.502;13.488;2023-03-14T13:46:40;12.70;1.00
1377;DHT22;682;52.502;13.488;2023-03-14T13:49:11;12.70;1.00
1377;DHT22;682;52.502;13.488;2023-03-14T13:51:40;12.60;1.00
1377;DHT22;682;52.502;13.488;2023-03-14T13:54:14;12.50;1.00
1377;DHT22;682;52.502;13.488;2023-03-14T13:56:43;12.50;1.00
1377;DHT22;682;52.502;13.488;2023-03-14T13:59:22;12.50;1.00
1377;DHT22;682;52.502;13.488;2023-03-14T14:01:50;12.70;1.00
1377;DHT22;682;52.502;13.488;2023-03-14T14:04:20;12.90;1.00
1377;DHT22;682;52.502;13.488;2023-03-14T14:06:52;12.90;1.00
1377;DHT22;682;52.502;13.488;2023-03-14T14:09:23;12.80;1.00
1377;DHT22;682;52.502;13.488;2023-03-14T14:11:55;12.90;1.00
1377;DHT22;682;52.502;13.488;2023-03-14T14:14:27;13.00;1.00
1377;DHT22;682;52.502;13.488;2023-03-14T14:16:55;13.20;1.00
1377;DHT22;682;52.502;13.488;2023-03-14T14:19:29;13.20;1.00
1377;DHT22;682;52.502;13.488;2023-03-14T14:21:58;13.20;1.00
1377;DHT22;682;52.502;13.488;2023-03-14T14:24:29;13.40;1.00
1377;DHT22;682;52.502;13.488;2023-03-14T14:27:01;13.60;1.00
1377;DHT22;682;52.502;13.488;2023-03-14T14:29:31;13.70;1.00
1377;DHT22;682;52.502;13.488;2023-03-14T14:32:01;13.80;1.00
1377;DHT22;682;52.502;13.488;2023-03-14T14:34:28;13.90;1.00
1377;DHT22;682;52.502;13.488;2023-03-14T14:36:55;14.10;1.00
1377;DHT22;682;52.502;13.488;2023-03-14T14:39:24;14.20;1.00
1377;DHT22;682;52.502;13.488;2023-03-14T14:41:55;14.30;1.00
1377;DHT22;682;52.502;13.488;2023-03-14T14:44:28;14.40;1.00
1377;DHT22;682;52.502;13.488;2023-03-14T14:46:57;14.50;1.00
1377;DHT22;682;52.502;13.488;2023-03-14T14:49:29;14.60;1.00
1377;DHT22;682;52.502;13.488;2023-03-14T14:52:01;14.60;1.00
1377;DHT22;682;52.502;13.488;2023-03-14T14:54:34;14.80;1.00
1377;DHT22;682;52.502;13.488;2023-03-14T14:57:05;14.80;1.00
1377;DHT22;682;52.502;13.488;2023-03-14T14:59:42;14.70;1.00
1377;DHT22;682;52.502;13.488;2023-03-14T15:02:24;14.80;1.00
1377;DHT22;682;52.502;13.488;2023-03-14T15:04:54;14.90;1.00
1377;DHT22;682;52.502;13.488;2023-03-14T15:07:21;14.60;1.00
1377;DHT22;682;52.502;13.488;2023-03-14T15:09:48;14.50;1.00
1377;DHT22;682;52.502;13.488;2023-03-14T15:12:15;14.40;1.00
1377;DHT22;682;52.502;13.488;2023-03-14T15:14:43;14.30;1.00
1377;DHT22;682;52.502;13.488;2023-03-14T15:17:11;14.20;1.00
1377;DHT22;682;52.502;13.488;2023-03-14T15:19:38;14.30;1.00
1377;DHT22;682;52.502;13.488;2023-03-14T15:22:11;14.30;1.00
1377;DHT22;682;52.502;13.488;2023-03-14T15:24:38;14.10;1.00
1377;DHT22;682;52.502;13.488;2023-03-14T15:27:11;14.10;1.00
1377;DHT22;682;52.502;13.488;2023-03-14T15:29:39;12.80;1.00
1377;DHT22;682;52.502;13.488;2023-03-14T15:32:11;10.90;1.00
1377;DHT22;682;52.502;13.488;2023-03-14T15:34:38;9.60;1.00
1377;DHT22;682;52.502;13.488;2023-03-14T15:37:07;8.80;1.00
1377;DHT22;682;52.502;13.488;2023-03-14T15:39:36;8.40;1.00
1377;DHT22;682;52.502;13.488;2023-03-14T15:42:03;8.10;1.00
1377;DHT22;682;52.502;13.488;2023-03-14T15:44:30;7.90;1.00
1377;DHT22;682;52.502;13.488;2023-03-14T15:46:58;7.60;1.00
1377;DHT22;682;52.502;13.488;2023-03-14T15:49:27;7.40;1.00
1377;DHT22;682;52.502;13.488;2023-03-14T15:51:54;7.20;1.00
1377;DHT22;682;52.502;13.488;2023-03-14T15:54:21;7.10;1.00
1377;DHT22;682;52.502;13.488;2023-03-14T15:56:48;7.00;1.00
1377;DHT22;682;52.502;13.488;2023-03-14T15:59:17;6.90;1.00
1377;DHT22;682;52.502;13.488;2023-03-14T16:01:44;6.60;1.00
1377;DHT22;682;52.502;13.488;2023-03-14T16:04:13;6.20;1.00
1377;DHT22;682;52.502;13.488;2023-03-14T16:06:42;5.70;1.00
1377;DHT22;682;52.502;13.488;2023-03-14T16:09:11;5.40;1.00
1377;DHT22;682;52.502;13.488;2023-03-14T16:11:38;5.00;1.00
1377;DHT22;682;52.502;13.488;2023-03-14T16:14:06;4.70;1.00
1377;DHT22;682;52.502;13.488;2023-03-14T16:16:33;4.40;1.00
1377;DHT22;682;52.502;13.488;2023-03-14T16:19:02;4.20;1.00
1377;DHT22;682;52.502;13.488;2023-03-14T16:21:30;3.90;1.00
1377;DHT22;682;52.502;13.488;2023-03-14T16:23:59;3.60;1.00
1377;DHT22;682;52.502;13.488;2023-03-14T16:26:27;3.40;1.00
1377;DHT22;682;52.502;13.488;2023-03-14T16:28:54;3.20;1.00
1377;DHT22;682;52.502;13.488;2023-03-14T16:31:21;3.10;1.00
1377;DHT22;682;52.502;13.488;2023-03-14T16:33:50;3.00;1.00
1377;DHT22;682;52.502;13.488;2023-03-14T16:36:17;3.00;1.00
1377;DHT22;682;52.502;13.488;2023-03-14T16:38:44;3.00;1.00
1377;DHT22;682;52.502;13.488;2023-03-14T16:41:14;2.90;1.00